createdAt,value
2023-05-09T00:00:02.680Z,100232.22
2023-05-09T00:00:34.133Z,100226.22
2023-05-09T00:01:07.598Z,100223.75
2023-05-09T00:01:39.141Z,100233.03
2023-05-09T00:02:10.600Z,100229.78
2023-05-09T00:02:42.169Z,100226.75
2023-05-09T00:03:13.838Z,100223.22
2023-05-09T00:03:45.413Z,100225.41
2023-05-09T00:04:16.881Z,100227.31
2023-05-09T00:04:48.377Z,100221.84
2023-05-09T00:05:19.957Z,100222.69
2023-05-09T00:05:51.444Z,100225.66
2023-05-09T00:06:22.847Z,100224.84
2023-05-09T00:06:54.393Z,100233.03
2023-05-09T00:07:25.802Z,100223.78
2023-05-09T00:07:57.188Z,100224.88
2023-05-09T00:08:28.616Z,100220.25
2023-05-09T00:09:00.029Z,100224.63
2023-05-09T00:09:31.426Z,100221.88
2023-05-09T00:10:02.890Z,100219.97
2023-05-09T00:10:34.278Z,100220.81
2023-05-09T00:11:05.667Z,100220.25
2023-05-09T00:11:37.076Z,100223.81
2023-05-09T00:12:08.584Z,100220.81
2023-05-09T00:12:40.095Z,100224.06
2023-05-09T00:13:11.569Z,100213.69
2023-05-09T00:14:15.524Z,100222.97
2023-05-09T00:14:46.996Z,100220.25
2023-05-09T00:15:18.416Z,100217.53
2023-05-09T00:15:51.603Z,100221.34
2023-05-09T00:16:23.067Z,100218.63
2023-05-09T00:16:54.523Z,100207.75
2023-05-09T00:17:26.074Z,100216.72
2023-05-09T00:17:57.629Z,100219.72
2023-05-09T00:18:29.117Z,100213.72
2023-05-09T00:19:00.517Z,100218.63
2023-05-09T00:19:31.949Z,100215.34
2023-05-09T00:20:03.325Z,100211.28
2023-05-09T00:20:34.792Z,100222.44
2023-05-09T00:21:06.212Z,100219.44
2023-05-09T00:21:37.759Z,100208.81
2023-05-09T00:22:09.266Z,100217.53
2023-05-09T00:22:40.803Z,100213.44
2023-05-09T00:23:13.447Z,100217.50
2023-05-09T00:23:44.849Z,100215.88
2023-05-09T00:24:16.284Z,100211.53
2023-05-09T00:24:47.661Z,100210.97
2023-05-09T00:25:19.063Z,100210.97
2023-05-09T00:25:50.510Z,100215.06
2023-05-09T00:26:21.908Z,100210.69
2023-05-09T00:26:53.345Z,100212.91
2023-05-09T00:27:24.741Z,100212.38
2023-05-09T00:27:58.734Z,100208.81
2023-05-09T00:28:30.129Z,100207.72
2023-05-09T00:29:01.688Z,100208.28
2023-05-09T00:29:33.195Z,100211.00
2023-05-09T00:30:07.468Z,100208.81
2023-05-09T00:30:41.637Z,100197.13
2023-05-09T00:31:13.203Z,100200.38
2023-05-09T00:31:44.812Z,100209.91
2023-05-09T00:32:16.413Z,100194.13
2023-05-09T00:32:48.022Z,100201.22
2023-05-09T00:33:19.712Z,100204.47
2023-05-09T00:33:51.282Z,100201.75
2023-05-09T00:34:22.792Z,100191.41
2023-05-09T00:34:54.331Z,100193.31
2023-05-09T00:35:25.925Z,100190.59
2023-05-09T00:35:57.412Z,100190.31
2023-05-09T00:36:28.903Z,100196.31
2023-05-09T00:37:00.324Z,100190.31
2023-05-09T00:37:31.700Z,100190.84
2023-05-09T00:38:03.135Z,100193.03
2023-05-09T00:38:34.584Z,100191.13
2023-05-09T00:39:05.999Z,100192.78
2023-05-09T00:39:37.442Z,100187.03
2023-05-09T00:40:08.846Z,100188.94
2023-05-09T00:40:40.253Z,100185.16
2023-05-09T00:41:11.680Z,100184.84
2023-05-09T00:41:43.188Z,100184.31
2023-05-09T00:42:14.660Z,100184.31
2023-05-09T00:42:46.050Z,100186.22
2023-05-09T00:43:17.431Z,100173.72
2023-05-09T00:43:48.843Z,100180.78
2023-05-09T00:44:20.248Z,100183.50
2023-05-09T00:44:51.657Z,100178.34
2023-05-09T00:45:23.030Z,100177.25
2023-05-09T00:45:54.516Z,100173.97
2023-05-09T00:46:25.993Z,100174.25
2023-05-09T00:46:57.563Z,100178.88
2023-05-09T00:47:29.012Z,100176.69
2023-05-09T00:48:00.613Z,100169.34
2023-05-09T00:48:32.048Z,100167.97
2023-05-09T00:49:03.530Z,100177.75
2023-05-09T00:49:36.701Z,100174.78
2023-05-09T00:50:08.081Z,100174.53
2023-05-09T00:50:39.637Z,100171.25
2023-05-09T00:51:11.053Z,100170.69
2023-05-09T00:51:42.461Z,100175.88
2023-05-09T00:52:13.903Z,100174.53
2023-05-09T00:52:45.335Z,100171.78
2023-05-09T00:53:16.785Z,100172.59
2023-05-09T00:53:48.309Z,100175.59
2023-05-09T00:54:19.745Z,100168.25
2023-05-09T00:54:51.250Z,100167.69
2023-05-09T00:55:22.753Z,100157.63
2023-05-09T00:55:54.286Z,100167.69
2023-05-09T00:56:25.688Z,100163.91
2023-05-09T00:56:57.133Z,100163.63
2023-05-09T00:57:28.726Z,100158.75
2023-05-09T00:58:00.179Z,100166.63
2023-05-09T00:58:31.568Z,100162.28
2023-05-09T00:59:03.029Z,100154.38
2023-05-09T00:59:34.428Z,100157.09
2023-05-09T01:00:05.994Z,100157.38
2023-05-09T01:00:37.459Z,100158.19
2023-05-09T01:01:08.974Z,100152.72
2023-05-09T01:01:40.430Z,100151.09
2023-05-09T01:02:11.896Z,100151.09
2023-05-09T01:02:43.419Z,100150.28
2023-05-09T01:03:17.791Z,100151.63
2023-05-09T01:03:49.407Z,100156.28
2023-05-09T01:04:20.890Z,100153.56
2023-05-09T01:04:52.386Z,100155.72
2023-05-09T01:05:23.871Z,100157.91
2023-05-09T01:05:55.301Z,100151.66
2023-05-09T01:06:26.737Z,100150.03
2023-05-09T01:06:58.156Z,100159.31
2023-05-09T01:07:29.546Z,100151.66
2023-05-09T01:08:00.983Z,100146.22
2023-05-09T01:08:32.567Z,100156.56
2023-05-09T01:09:03.982Z,100149.22
2023-05-09T01:09:35.380Z,100150.56
2023-05-09T01:10:06.806Z,100145.97
2023-05-09T01:10:38.534Z,100155.47
2023-05-09T01:11:09.984Z,100152.75
2023-05-09T01:11:41.401Z,100150.03
2023-05-09T01:12:12.843Z,100150.06
2023-05-09T01:12:44.294Z,100148.97
2023-05-09T01:13:15.898Z,100147.59
2023-05-09T01:13:47.369Z,100147.31
2023-05-09T01:14:18.951Z,100152.22
2023-05-09T01:14:50.394Z,100145.19
2023-05-09T01:15:21.795Z,100145.16
2023-05-09T01:15:53.259Z,100141.88
2023-05-09T01:16:24.745Z,100147.88
2023-05-09T01:16:56.236Z,100146.50
2023-05-09T01:17:27.742Z,100151.13
2023-05-09T01:17:59.312Z,100148.97
2023-05-09T01:18:30.758Z,100142.69
2023-05-09T01:19:02.245Z,100149.50
2023-05-09T01:19:33.635Z,100137.81
2023-05-09T01:20:05.146Z,100138.59
2023-05-09T01:20:36.578Z,100132.63
2023-05-09T01:21:08.018Z,100134.53
2023-05-09T01:21:39.439Z,100134.00
2023-05-09T01:22:10.835Z,100133.19
2023-05-09T01:22:42.224Z,100131.84
2023-05-09T01:23:13.671Z,100133.72
2023-05-09T01:23:47.808Z,100134.53
2023-05-09T01:24:19.268Z,100132.38
2023-05-09T01:24:50.656Z,100129.38
2023-05-09T01:25:22.037Z,100132.09
2023-05-09T01:25:53.494Z,100131.28
2023-05-09T01:26:24.964Z,100126.34
2023-05-09T01:26:56.397Z,100127.19
2023-05-09T01:27:27.839Z,100128.28
2023-05-09T01:27:59.333Z,100128.53
2023-05-09T01:28:30.764Z,100127.19
2023-05-09T01:29:02.161Z,100128.53
2023-05-09T01:29:33.581Z,100128.84
2023-05-09T01:30:05.033Z,100129.63
2023-05-09T01:30:36.476Z,100125.81
2023-05-09T01:31:08.014Z,100123.91
2023-05-09T01:31:39.540Z,100123.38
2023-05-09T01:32:10.988Z,100121.47
2023-05-09T01:32:42.478Z,100121.50
2023-05-09T01:33:13.952Z,100124.75
2023-05-09T01:33:45.364Z,100119.59
2023-05-09T01:34:16.785Z,100123.66
2023-05-09T01:34:48.225Z,100122.31
2023-05-09T01:35:19.677Z,100117.41
2023-05-09T01:35:51.103Z,100115.22
2023-05-09T01:36:22.489Z,100113.59
2023-05-09T01:36:53.935Z,100116.59
2023-05-09T01:37:25.356Z,100123.94
2023-05-09T01:37:56.858Z,100110.59
2023-05-09T01:38:28.317Z,100107.06
2023-05-09T01:38:59.719Z,100110.59
2023-05-09T01:39:31.127Z,100103.53
2023-05-09T01:40:02.523Z,100099.72
2023-05-09T01:40:33.968Z,100094.53
2023-05-09T01:41:05.344Z,100109.25
2023-05-09T01:41:36.756Z,100107.88
2023-05-09T01:42:08.204Z,100104.38
2023-05-09T01:42:39.622Z,100111.69
2023-05-09T01:43:11.118Z,100097.25
2023-05-09T01:43:42.587Z,100098.09
2023-05-09T01:44:14.083Z,100101.34
2023-05-09T01:44:45.593Z,100099.72
2023-05-09T01:45:17.271Z,100102.16
2023-05-09T01:45:48.794Z,100102.16
2023-05-09T01:46:20.255Z,100099.44
2023-05-09T01:46:51.776Z,100101.31
2023-05-09T01:47:23.260Z,100102.13
2023-05-09T01:47:54.866Z,100103.47
2023-05-09T01:48:26.383Z,100107.59
2023-05-09T01:49:00.781Z,100103.47
2023-05-09T01:49:32.194Z,100101.56
2023-05-09T01:50:03.633Z,100098.31
2023-05-09T01:50:35.158Z,100097.22
2023-05-09T01:51:06.568Z,100107.59
2023-05-09T01:51:37.983Z,100103.75
2023-05-09T01:52:09.384Z,100099.13
2023-05-09T01:52:40.818Z,100096.44
2023-05-09T01:53:12.235Z,100101.84
2023-05-09T01:53:43.723Z,100092.63
2023-05-09T01:54:15.182Z,100099.41
2023-05-09T01:54:48.484Z,100092.88
2023-05-09T01:55:19.884Z,100092.06
2023-05-09T01:55:51.288Z,100084.44
2023-05-09T01:56:22.745Z,100093.44
2023-05-09T01:56:54.196Z,100097.78
2023-05-09T01:57:25.585Z,100095.63
2023-05-09T01:57:57.059Z,100085.81
2023-05-09T01:58:28.607Z,100088.53
2023-05-09T01:59:00.123Z,100090.72
2023-05-09T01:59:31.557Z,100092.34
2023-05-09T02:00:03.058Z,100093.44
2023-05-09T02:00:34.794Z,100091.53
2023-05-09T02:01:06.379Z,100085.81
2023-05-09T02:01:37.854Z,100094.25
2023-05-09T02:02:09.273Z,100079.81
2023-05-09T02:02:41.035Z,100088.00
2023-05-09T02:03:12.638Z,100090.44
2023-05-09T02:03:44.087Z,100086.88
2023-05-09T02:04:15.542Z,100080.06
2023-05-09T02:04:46.967Z,100083.34
2023-05-09T02:05:18.554Z,100084.19
2023-05-09T02:05:49.948Z,100080.91
2023-05-09T02:06:23.425Z,100085.00
2023-05-09T02:06:54.855Z,100087.72
2023-05-09T02:07:26.270Z,100092.34
2023-05-09T02:07:57.729Z,100088.53
2023-05-09T02:08:29.175Z,100087.72
2023-05-09T02:09:00.622Z,100090.72
2023-05-09T02:09:32.091Z,100092.34
2023-05-09T02:10:03.532Z,100098.91
2023-05-09T02:10:35.391Z,100090.16
2023-05-09T02:11:06.842Z,100097.25
2023-05-09T02:11:38.252Z,100095.63
2023-05-09T02:12:09.680Z,100098.88
2023-05-09T02:12:41.148Z,100097.00
2023-05-09T02:13:12.642Z,100098.63
2023-05-09T02:13:44.167Z,100094.28
2023-05-09T02:14:15.593Z,100095.63
2023-05-09T02:14:47.104Z,100092.91
2023-05-09T02:15:18.609Z,100104.63
2023-05-09T02:15:50.165Z,100097.25
2023-05-09T02:16:21.589Z,100092.34
2023-05-09T02:16:53.094Z,100097.28
2023-05-09T02:17:24.546Z,100086.66
2023-05-09T02:17:56.002Z,100094.56
2023-05-09T02:18:27.499Z,100096.19
2023-05-09T02:18:58.984Z,100088.84
2023-05-09T02:19:30.435Z,100088.84
2023-05-09T02:20:01.974Z,100091.28
2023-05-09T02:20:33.410Z,100089.38
2023-05-09T02:21:04.915Z,100089.63
2023-05-09T02:21:36.355Z,100089.09
2023-05-09T02:22:10.499Z,100088.03
2023-05-09T02:22:41.922Z,100086.97
2023-05-09T02:23:13.337Z,100084.78
2023-05-09T02:23:44.773Z,100090.25
2023-05-09T02:24:16.142Z,100090.75
2023-05-09T02:24:47.666Z,100089.94
2023-05-09T02:25:19.125Z,100082.06
2023-05-09T02:25:50.583Z,100086.94
2023-05-09T02:26:21.941Z,100085.31
2023-05-09T02:26:53.394Z,100083.41
2023-05-09T02:27:24.773Z,100088.06
2023-05-09T02:27:56.165Z,100084.25
2023-05-09T02:28:27.589Z,100083.97
2023-05-09T02:28:58.988Z,100079.31
2023-05-09T02:29:30.383Z,100080.97
2023-05-09T02:30:01.844Z,100081.50
2023-05-09T02:30:33.385Z,100080.97
2023-05-09T02:31:04.773Z,100075.50
2023-05-09T02:31:36.300Z,100079.88
2023-05-09T02:32:07.796Z,100078.50
2023-05-09T02:32:39.285Z,100071.16
2023-05-09T02:33:10.752Z,100078.50
2023-05-09T02:33:42.234Z,100079.88
2023-05-09T02:34:13.657Z,100080.69
2023-05-09T02:34:45.078Z,100081.50
2023-05-09T02:35:18.681Z,100088.88
2023-05-09T02:35:50.141Z,100083.97
2023-05-09T02:36:21.563Z,100085.59
2023-05-09T02:36:53.001Z,100087.78
2023-05-09T02:37:24.414Z,100079.88
2023-05-09T02:37:55.841Z,100084.25
2023-05-09T02:38:27.320Z,100080.69
2023-05-09T02:38:58.725Z,100088.88
2023-05-09T02:39:30.130Z,100077.16
2023-05-09T02:40:01.573Z,100087.78
2023-05-09T02:40:33.012Z,100072.00
2023-05-09T02:41:04.458Z,100086.41
2023-05-09T02:41:35.865Z,100075.50
2023-05-09T02:42:07.276Z,100080.97
2023-05-09T02:42:38.683Z,100074.69
2023-05-09T02:43:10.100Z,100076.31
2023-05-09T02:43:41.564Z,100078.50
2023-05-09T02:44:12.965Z,100080.97
2023-05-09T02:44:44.497Z,100075.81
2023-05-09T02:45:16.180Z,100076.88
2023-05-09T02:45:47.802Z,100078.22
2023-05-09T02:46:19.335Z,100086.97
2023-05-09T02:46:50.852Z,100083.97
2023-05-09T02:47:22.291Z,100077.69
2023-05-09T02:47:53.856Z,100077.72
2023-05-09T02:48:25.431Z,100080.16
2023-05-09T02:48:57.069Z,100076.88
2023-05-09T02:49:32.504Z,100071.69
2023-05-09T02:50:04.200Z,100078.53
2023-05-09T02:50:35.698Z,100088.09
2023-05-09T02:51:07.174Z,100079.66
2023-05-09T02:51:38.693Z,100079.34
2023-05-09T02:52:13.207Z,100088.09
2023-05-09T02:52:44.674Z,100086.19
2023-05-09T02:53:16.227Z,100081.56
2023-05-09T02:53:47.643Z,100081.28
2023-05-09T02:54:19.154Z,100088.34
2023-05-09T02:54:50.719Z,100085.38
2023-05-09T02:55:22.168Z,100081.56
2023-05-09T02:55:53.577Z,100090.25
2023-05-09T02:56:25.020Z,100084.28
2023-05-09T02:56:56.570Z,100084.56
2023-05-09T02:57:27.982Z,100076.38
2023-05-09T02:58:12.518Z,100082.63
2023-05-09T02:58:44.675Z,100079.66
2023-05-09T02:59:16.187Z,100080.19
2023-05-09T02:59:47.597Z,100086.69
2023-05-09T03:00:19.023Z,100086.16
2023-05-09T03:00:50.410Z,100086.72
2023-05-09T03:01:21.886Z,100079.38
2023-05-09T03:01:53.436Z,100079.66
2023-05-09T03:02:25.022Z,100074.19
2023-05-09T03:02:56.508Z,100081.84
2023-05-09T03:03:28.086Z,100079.91
2023-05-09T03:03:59.805Z,100084.81
2023-05-09T03:04:31.249Z,100080.19
2023-05-09T03:05:02.665Z,100079.38
2023-05-09T03:05:34.075Z,100081.00
2023-05-09T03:06:05.487Z,100070.38
2023-05-09T03:06:37.007Z,100073.38
2023-05-09T03:07:08.387Z,100073.63
2023-05-09T03:07:39.827Z,100069.56
2023-05-09T03:08:11.354Z,100063.28
2023-05-09T03:08:42.838Z,100068.44
2023-05-09T03:09:14.257Z,100062.47
2023-05-09T03:09:45.636Z,100074.19
2023-05-09T03:10:20.081Z,100068.75
2023-05-09T03:10:51.511Z,100070.66
2023-05-09T03:11:22.978Z,100065.75
2023-05-09T03:11:54.468Z,100069.00
2023-05-09T03:12:25.884Z,100070.63
2023-05-09T03:12:57.330Z,100073.34
2023-05-09T03:13:28.751Z,100070.66
2023-05-09T03:14:00.345Z,100065.47
2023-05-09T03:14:31.740Z,100067.38
2023-05-09T03:15:03.100Z,100067.91
2023-05-09T03:15:34.528Z,100071.19
2023-05-09T03:16:05.947Z,100065.47
2023-05-09T03:16:37.470Z,100067.66
2023-05-09T03:17:08.949Z,100064.38
2023-05-09T03:17:40.397Z,100059.75
2023-05-09T03:18:13.852Z,100061.66
2023-05-09T03:18:45.267Z,100067.63
2023-05-09T03:19:16.630Z,100060.00
2023-05-09T03:19:50.656Z,100062.19
2023-05-09T03:20:22.058Z,100063.84
2023-05-09T03:20:53.484Z,100056.22
2023-05-09T03:21:24.891Z,100061.66
2023-05-09T03:21:56.307Z,100060.56
2023-05-09T03:22:27.730Z,100060.56
2023-05-09T03:22:59.122Z,100059.47
2023-05-09T03:23:30.501Z,100068.16
2023-05-09T03:24:01.966Z,100061.09
2023-05-09T03:24:33.374Z,100063.00
2023-05-09T03:25:04.823Z,100064.13
2023-05-09T03:25:36.230Z,100057.28
2023-05-09T03:26:07.640Z,100061.91
2023-05-09T03:26:39.047Z,100063.84
2023-05-09T03:27:10.458Z,100063.31
2023-05-09T03:27:41.984Z,100056.22
2023-05-09T03:28:13.416Z,100064.66
2023-05-09T03:28:44.929Z,100060.00
2023-05-09T03:29:16.382Z,100053.47
2023-05-09T03:29:47.787Z,100057.84
2023-05-09T03:30:19.191Z,100056.75
2023-05-09T03:30:50.595Z,100057.59
2023-05-09T03:31:22.026Z,100053.50
2023-05-09T03:31:53.414Z,100048.63
2023-05-09T03:32:24.884Z,100057.31
2023-05-09T03:32:56.396Z,100049.97
2023-05-09T03:33:27.843Z,100051.31
2023-05-09T03:33:59.231Z,100051.31
2023-05-09T03:34:30.644Z,100061.09
2023-05-09T03:35:02.053Z,100057.03
2023-05-09T03:35:33.465Z,100055.69
2023-05-09T03:36:04.891Z,100056.50
2023-05-09T03:36:36.380Z,100049.41
2023-05-09T03:37:07.847Z,100055.13
2023-05-09T03:37:39.377Z,100051.84
2023-05-09T03:38:10.864Z,100057.84
2023-05-09T03:38:42.244Z,100040.94
2023-05-09T03:39:13.688Z,100047.47
2023-05-09T03:39:45.107Z,100047.22
2023-05-09T03:40:16.517Z,100051.28
2023-05-09T03:40:47.948Z,100045.28
2023-05-09T03:41:19.424Z,100050.19
2023-05-09T03:41:50.834Z,100058.66
2023-05-09T03:42:22.242Z,100051.03
2023-05-09T03:42:53.661Z,100043.69
2023-05-09T03:43:25.145Z,100046.94
2023-05-09T03:43:56.539Z,100048.84
2023-05-09T03:44:27.931Z,100045.31
2023-05-09T03:44:59.339Z,100047.78
2023-05-09T03:45:30.790Z,100046.97
2023-05-09T03:46:02.248Z,100046.97
2023-05-09T03:46:36.987Z,100048.84
2023-05-09T03:47:08.491Z,100048.88
2023-05-09T03:47:40.006Z,100042.34
2023-05-09T03:48:11.532Z,100037.97
2023-05-09T03:48:43.071Z,100046.69
2023-05-09T03:49:14.451Z,100044.50
2023-05-09T03:49:45.896Z,100047.81
2023-05-09T03:50:17.394Z,100041.81
2023-05-09T03:50:48.844Z,100040.19
2023-05-09T03:51:20.244Z,100044.00
2023-05-09T03:51:51.612Z,100039.34
2023-05-09T03:52:23.054Z,100042.91
2023-05-09T03:52:57.321Z,100040.72
2023-05-09T03:53:28.729Z,100034.44
2023-05-09T03:54:00.243Z,100042.88
2023-05-09T03:54:31.660Z,100032.53
2023-05-09T03:55:03.325Z,100032.53
2023-05-09T03:55:34.738Z,100032.81
2023-05-09T03:56:06.175Z,100040.16
2023-05-09T03:56:37.584Z,100032.53
2023-05-09T03:57:09.026Z,100024.09
2023-05-09T03:57:40.490Z,100025.75
2023-05-09T03:58:11.902Z,100028.16
2023-05-09T03:58:43.350Z,100033.34
2023-05-09T03:59:14.812Z,100032.53
2023-05-09T03:59:46.253Z,100030.88
2023-05-09T04:00:17.660Z,100036.91
2023-05-09T04:00:49.079Z,100032.81
2023-05-09T04:01:20.546Z,100031.16
2023-05-09T04:01:51.924Z,100028.44
2023-05-09T04:02:23.370Z,100027.38
2023-05-09T04:02:54.922Z,100041.25
2023-05-09T04:03:26.554Z,100031.16
2023-05-09T04:03:58.298Z,100030.38
2023-05-09T04:04:29.822Z,100026.00
2023-05-09T04:05:01.254Z,100035.00
2023-05-09T04:05:32.708Z,100037.47
2023-05-09T04:06:04.176Z,100036.09
2023-05-09T04:06:35.582Z,100043.44
2023-05-09T04:07:06.983Z,100032.53
2023-05-09T04:07:38.450Z,100027.91
2023-05-09T04:08:10.094Z,100025.19
2023-05-09T04:08:41.607Z,100035.25
2023-05-09T04:09:13.036Z,100030.09
2023-05-09T04:09:44.506Z,100029.81
2023-05-09T04:10:16.008Z,100032.53
2023-05-09T04:10:47.484Z,100033.63
2023-05-09T04:11:18.882Z,100028.72
2023-05-09T04:11:50.348Z,100027.88
2023-05-09T04:12:21.706Z,100024.06
2023-05-09T04:12:53.030Z,100030.06
2023-05-09T04:13:24.610Z,100030.34
2023-05-09T04:13:56.101Z,100032.78
2023-05-09T04:14:27.538Z,100025.41
2023-05-09T04:14:59.146Z,100031.16
2023-05-09T04:15:30.577Z,100023.53
2023-05-09T04:16:01.998Z,100025.41
2023-05-09T04:16:33.535Z,100019.69
2023-05-09T04:17:05.426Z,100023.81
2023-05-09T04:17:37.082Z,100024.34
2023-05-09T04:18:08.627Z,100023.78
2023-05-09T04:18:40.132Z,100020.81
2023-05-09T04:19:11.667Z,100025.13
2023-05-09T04:19:45.550Z,100023.78
2023-05-09T04:20:17.028Z,100027.06
2023-05-09T04:20:48.452Z,100030.88
2023-05-09T04:21:19.940Z,100027.31
2023-05-09T04:21:51.362Z,100029.78
2023-05-09T04:22:22.857Z,100034.69
2023-05-09T04:22:54.268Z,100030.88
2023-05-09T04:23:25.743Z,100027.06
2023-05-09T04:23:59.939Z,100024.59
2023-05-09T04:24:31.312Z,100032.22
2023-05-09T04:25:02.771Z,100027.59
2023-05-09T04:25:34.228Z,100034.41
2023-05-09T04:26:05.629Z,100028.16
2023-05-09T04:26:37.013Z,100020.50
2023-05-09T04:27:08.380Z,100021.88
2023-05-09T04:27:39.754Z,100025.94
2023-05-09T04:28:11.240Z,100018.59
2023-05-09T04:28:42.718Z,100019.16
2023-05-09T04:29:14.153Z,100017.78
2023-05-09T04:29:45.520Z,100023.75
2023-05-09T04:30:16.985Z,100024.31
2023-05-09T04:30:48.656Z,100026.25
2023-05-09T04:31:23.153Z,100021.63
2023-05-09T04:31:54.786Z,100025.19
2023-05-09T04:32:26.336Z,100019.47
2023-05-09T04:32:57.785Z,100023.56
2023-05-09T04:33:29.292Z,100014.00
2023-05-09T04:34:00.900Z,100015.63
2023-05-09T04:34:35.038Z,100019.16
2023-05-09T04:35:06.522Z,100014.81
2023-05-09T04:35:37.927Z,100020.78
2023-05-09T04:36:09.313Z,100019.97
2023-05-09T04:36:40.749Z,100018.63
2023-05-09T04:37:12.202Z,100016.72
2023-05-09T04:37:43.642Z,100021.59
2023-05-09T04:38:15.046Z,100019.16
2023-05-09T04:38:46.444Z,100019.69
2023-05-09T04:39:17.889Z,100007.72
2023-05-09T04:39:49.365Z,100016.97
2023-05-09T04:40:20.826Z,100014.50
2023-05-09T04:40:52.218Z,100017.78
2023-05-09T04:41:23.694Z,100014.50
2023-05-09T04:41:55.140Z,100016.94
2023-05-09T04:42:26.612Z,100019.66
2023-05-09T04:42:58.115Z,100020.75
2023-05-09T04:43:29.546Z,100011.25
2023-05-09T04:44:01.037Z,100014.25
2023-05-09T04:44:32.510Z,100013.97
2023-05-09T04:45:04.207Z,100010.72
2023-05-09T04:45:35.740Z,100007.19
2023-05-09T04:46:07.205Z,100016.69
2023-05-09T04:46:38.731Z,100022.13
2023-05-09T04:47:10.339Z,100019.16
2023-05-09T04:47:41.858Z,100011.81
2023-05-09T04:48:13.388Z,100014.25
2023-05-09T04:48:44.802Z,100018.63
2023-05-09T04:49:16.241Z,100014.25
2023-05-09T04:49:47.618Z,100013.44
2023-05-09T04:50:19.028Z,100015.63
2023-05-09T04:50:50.590Z,100014.81
2023-05-09T04:51:21.995Z,100012.34
2023-05-09T04:51:53.428Z,100012.06
2023-05-09T04:52:27.466Z,100016.13
2023-05-09T04:52:59.118Z,100005.00
2023-05-09T04:53:30.604Z,100007.16
2023-05-09T04:54:02.042Z,100007.16
2023-05-09T04:54:33.565Z,100004.16
2023-05-09T04:55:05.080Z,100005.00
2023-05-09T04:55:36.542Z,100004.72
2023-05-09T04:56:08.028Z,100003.63
2023-05-09T04:56:39.423Z,100002.56
2023-05-09T04:57:17.772Z,100002.00
2023-05-09T04:57:50.136Z,99995.44
2023-05-09T04:58:21.621Z,100000.91
2023-05-09T04:58:53.036Z,99994.34
2023-05-09T04:59:24.506Z,99998.72
2023-05-09T04:59:55.959Z,99987.28
2023-05-09T05:00:27.449Z,99992.16
2023-05-09T05:01:01.528Z,99991.88
2023-05-09T05:01:33.002Z,99989.44
2023-05-09T05:02:04.487Z,99991.63
2023-05-09T05:02:36.026Z,99986.22
2023-05-09T05:03:07.523Z,99987.28
2023-05-09T05:03:39.244Z,99984.84
2023-05-09T05:04:10.762Z,99987.84
2023-05-09T05:04:42.247Z,99986.75
2023-05-09T05:05:13.776Z,99985.94
2023-05-09T05:05:45.324Z,99979.94
2023-05-09T05:06:19.717Z,99988.66
2023-05-09T05:06:51.138Z,99991.09
2023-05-09T05:07:22.566Z,99986.47
2023-05-09T05:07:54.024Z,99994.34
2023-05-09T05:08:25.444Z,99991.91
2023-05-09T05:08:56.930Z,99984.56
2023-05-09T05:09:28.381Z,99980.47
2023-05-09T05:10:02.353Z,99990.81
2023-05-09T05:10:33.742Z,99995.75
2023-05-09T05:11:07.973Z,99994.91
2023-05-09T05:11:40.430Z,99993.00
2023-05-09T05:12:14.696Z,99985.94
2023-05-09T05:12:46.114Z,99989.72
2023-05-09T05:13:17.670Z,99990.56
2023-05-09T05:13:49.111Z,99987.28
2023-05-09T05:14:20.533Z,99988.94
2023-05-09T05:14:51.935Z,99984.03
2023-05-09T05:15:23.301Z,99983.78
2023-05-09T05:15:54.715Z,99988.13
2023-05-09T05:16:26.168Z,99985.41
2023-05-09T05:16:57.612Z,99976.66
2023-05-09T05:17:29.130Z,99977.78
2023-05-09T05:18:00.667Z,99981.31
2023-05-09T05:18:32.098Z,99981.56
2023-05-09T05:19:03.639Z,99975.28
2023-05-09T05:19:35.086Z,99979.38
2023-05-09T05:20:06.681Z,99976.91
2023-05-09T05:20:38.115Z,99967.66
2023-05-09T05:21:09.502Z,99970.38
2023-05-09T05:21:40.891Z,99967.66
2023-05-09T05:22:12.451Z,99963.06
2023-05-09T05:22:43.862Z,99968.75
2023-05-09T05:23:15.268Z,99965.78
2023-05-09T05:23:46.786Z,99968.22
2023-05-09T05:24:18.388Z,99967.13
2023-05-09T05:24:49.853Z,99970.94
2023-05-09T05:25:21.386Z,99963.88
2023-05-09T05:25:52.824Z,99962.25
2023-05-09T05:26:26.972Z,99965.53
2023-05-09T05:26:58.399Z,99965.25
2023-05-09T05:27:32.881Z,99967.16
2023-05-09T05:28:04.381Z,99967.13
2023-05-09T05:28:35.851Z,99961.97
2023-05-09T05:29:07.276Z,99967.69
2023-05-09T05:29:38.702Z,99961.72
2023-05-09T05:30:10.141Z,99968.22
2023-05-09T05:30:41.556Z,99962.22
2023-05-09T05:31:12.985Z,99962.50
2023-05-09T05:31:44.528Z,99964.94
2023-05-09T05:32:16.014Z,99954.63
2023-05-09T05:32:47.507Z,99956.78
2023-05-09T05:33:19.036Z,99959.50
2023-05-09T05:33:50.508Z,99964.41
2023-05-09T05:34:21.950Z,99966.03
2023-05-09T05:34:53.371Z,99961.94
2023-05-09T05:35:24.794Z,99955.69
2023-05-09T05:35:56.217Z,99960.56
2023-05-09T05:36:27.685Z,99952.94
2023-05-09T05:36:59.160Z,99952.41
2023-05-09T05:37:30.552Z,99955.69
2023-05-09T05:38:01.945Z,99956.78
2023-05-09T05:38:33.344Z,99952.72
2023-05-09T05:39:04.753Z,99951.63
2023-05-09T05:39:36.230Z,99956.25
2023-05-09T05:40:07.629Z,99956.53
2023-05-09T05:40:39.076Z,99954.63
2023-05-09T05:41:10.605Z,99955.44
2023-05-09T05:41:42.144Z,99955.72
2023-05-09T05:42:13.668Z,99948.91
2023-05-09T05:42:45.149Z,99954.66
2023-05-09T05:43:16.557Z,99951.34
2023-05-09T05:43:48.086Z,99950.53
2023-05-09T05:44:19.617Z,99960.59
2023-05-09T05:44:51.153Z,99943.72
2023-05-09T05:45:22.643Z,99954.38
2023-05-09T05:45:54.237Z,99953.81
2023-05-09T05:46:25.765Z,99947.53
2023-05-09T05:46:57.292Z,99950.22
2023-05-09T05:47:28.788Z,99943.72
2023-05-09T05:48:00.565Z,99941.53
2023-05-09T05:48:32.008Z,99945.31
2023-05-09T05:49:03.418Z,99943.66
2023-05-09T05:49:34.836Z,99951.56
2023-05-09T05:50:06.259Z,99946.13
2023-05-09T05:50:38.084Z,99953.47
2023-05-09T05:51:09.477Z,99952.09
2023-05-09T05:51:40.871Z,99944.47
2023-05-09T05:52:12.255Z,99949.38
2023-05-09T05:52:43.906Z,99954.81
2023-05-09T05:53:18.193Z,99938.25
2023-05-09T05:53:52.590Z,99948.31
2023-05-09T05:54:24.011Z,99945.84
2023-05-09T05:54:55.500Z,99945.84
2023-05-09T05:55:26.968Z,99942.56
2023-05-09T05:55:58.406Z,99949.09
2023-05-09T05:56:29.803Z,99944.47
2023-05-09T05:57:01.204Z,99945.03
2023-05-09T05:57:34.210Z,99945.56
2023-05-09T05:58:05.607Z,99947.47
2023-05-09T05:58:37.000Z,99946.38
2023-05-09T05:59:08.375Z,99944.75
2023-05-09T05:59:39.842Z,99939.03
2023-05-09T06:00:11.433Z,99941.50
2023-05-09T06:00:45.859Z,99944.19
2023-05-09T06:01:17.266Z,99946.13
2023-05-09T06:01:48.734Z,99943.66
2023-05-09T06:02:20.270Z,99944.72
2023-05-09T06:02:51.812Z,99941.47